ADDS TAF Board (Experimental) INFO Settings
IDs: Format: Expanded Condensed

KMEM - Memphis Intl, TN, US

Issued at 2101 UTC 23 Aug 2016
Updated at 2103 UTC 23 Aug 2016
Time2054Z 23/22Z 23/23Z 24/00Z 24/01Z 24/02Z 24/03Z 24/04Z 24/05Z 24/06Z 24/07Z 24/08Z 24/09Z 24/10Z
Type OBS PRVL PRVL PRVL PRVL PRVL PRVL PRVL PRVL PRVL PRVL PRVL PRVL PRVL
VIS 10 >6 >6 >6 >6 >6 >6 >6 >6 >6 >6 >6 >6 >6
CIG -- 250 250 250 -- -- -- -- -- -- -- -- -- --
Cover SCT BKN BKN BKN SCT SCT SCT SCT SCT SCT SCT SCT SCT SCT
FltCat VFR VFR VFR VFR VFR VFR VFR VFR VFR VFR VFR VFR VFR VFR
WX -- -- -- -- -- -- -- -- -- -- -- -- -- --
WDir 230 220 220 220 160 160 160 160 160 160 160 160 160 160
WSpd 7 7 7 7 4 4 4 4 4 4 4 4 4 4
WGst -- -- -- -- -- -- -- -- -- -- -- -- -- --
R09/27
XWnd -5 -6 -6 -6 -4 -4 -4 -4 -4 -4 -4 -4 -4 -4
HWnd -5 -4 -4 -4 1 1 1 1 1 1 1 1 1 1
R18/36
XWnd -5 -5 -5 -5 1 1 1 1 1 1 1 1 1 1
HWnd 4 5 5 5 4 4 4 4 4 4 4 4 4 4

Raw TAF
KMEM 232101Z 2321/2418 22007KT P6SM FEW035 SCT050 BKN250
  FM240100 16004KT P6SM SCT250
  FM241500 21007KT P6SM SCT040 SCT250


Raw METAR
KMEM 232054Z 23007KT 10SM SCT038 SCT060 SCT250 34/23 A3016 RMK AO2 SLP207 T03390233 58016
KMEM 232002Z 19007KT 10SM SCT036 SCT047 33/23 A3017 RMK AO2
KMEM 231954Z 21007KT 10SM BKN038 BKN055 32/23 A3017 RMK AO2 SLP213 T03220233
KMEM 231940Z 22006KT 10SM BKN036 BKN055 33/23 A3018 RMK AO2
KMEM 231854Z 18006KT 10SM SCT037 BKN090 BKN250 33/23 A3019 RMK AO2 SLP219 T03280233

METAR Board
Radar Display
Forecast Discussion

TAF Board Legend

Potential Impact
Threat None Slight Moderate High
Visibility (sm) ≥5.1 5.1>X≥3 3>X≥1 <1
Ceiling (100 ft) ≥30.1 30.1>X≥10 10>X≥5 <5
Wind Speed (kt) <10 10≤X<20 20≤X<30 ≥30
Wind Gust (kt) <15 15≤X<25 25≤X<35 ≥35
Weather No Wx Reported VCTS,-TS,-FZRA,SN TS,FZRA +TS,+FZRA,+SN